Moscow, OH (45153)

10:31 PM EDT on August 28, 2016 (GMT -0400)
Mt Auburn | | Change Station

Elev 834 ft 38.80 °N, 84.25 °W | Updated 26 minutes ago

Light Rain
Light Rain
70.8 °F
Feels Like 70.8 °F
N
1.0
Wind Variable Wind from North
Gusts 4.0 mph

Today
High -- | Low -- °F
--% Chance of Precip.
Yesterday
High -- | Low -- °F
Precip. -- in
Pressure 30.25 in
Visibility 10.0 miles
Clouds Scattered Clouds 500 ft
Scattered Clouds 5000 ft
Scattered Clouds 9000 ft
Dew Point 69 °F
Humidity 95%
Rainfall 0.36 in
Snow Depth Not available.
7:02 AM 8:12 PM
Waning Crescent, 11% visible
METAR KI69 290214Z AUTO 02008KT 10SM -RA SCT005 SCT050 SCT090 21/21 A3025 RMK AO2 P0001 T02130213
Pressure 30.25 in
Visibility 10.0 miles
Clouds Scattered Clouds 500 ft
Scattered Clouds 5000 ft
Scattered Clouds 9000 ft
Dew Point 69 °F
Humidity 95%
Rainfall 0.36 in
Snow Depth Not available.
7:02 AM 8:12 PM
Waning Crescent, 11% visible
METAR KI69 290214Z AUTO 02008KT 10SM -RA SCT005 SCT050 SCT090 21/21 A3025 RMK AO2 P0001 T02130213

10-Day Weather Forecast

Almanac

Astronomy

Aug. 28, 2016 Rise Set
Actual Time
Civil Twilight
Nautical Twilight
Astronomical Twilight
Moon
Length of Visible Light
Length of Day
Tomorrow will be .
, % of the Moon is Illuminated

Today's Extremes

State Highs State Lows

Community

WunderPhotos

Upload Photos

1,935,772 photos uploaded!

WunderBlog® & News

Nearby

Air Quality

  Air Quality AQ Index Pollutant
Not available.

Snow Depth

Station Depth Elevation

Earthquake Activity

City Distance Mag. Time & Date
Minimum magnitude displayed is 2.5.

Coastal Water Temperatures

Place Temperature

Stations

Nearby Weather Stations

Station Location Temp. Windchill Dew Point Humidity Wind Precip. Elev Updated Type
                   

Watches & Warnings

There are currently no watches in effect.